createdAt,value
2022-11-05T00:00:48.400Z,101671.72
2022-11-05T00:03:30.645Z,101668.31
2022-11-05T00:06:12.778Z,101665.56
2022-11-05T00:08:55.554Z,101678.56
2022-11-05T00:11:47.734Z,101680.22
2022-11-05T00:14:29.991Z,101681.56
2022-11-05T00:16:59.749Z,101691.00
2022-11-05T00:19:29.383Z,101695.38
2022-11-05T00:22:11.480Z,101700.28
2022-11-05T00:24:53.448Z,101701.81
2022-11-05T00:27:25.699Z,101705.97
2022-11-05T00:29:55.329Z,101716.22
2022-11-05T00:32:24.911Z,101715.97
2022-11-05T00:34:54.581Z,101717.47
2022-11-05T00:37:24.235Z,101724.22
2022-11-05T00:39:53.809Z,101721.38
2022-11-05T00:42:38.508Z,101723.75
2022-11-05T00:45:10.407Z,101726.28
2022-11-05T00:47:54.516Z,101720.94
2022-11-05T00:50:24.766Z,101719.16
2022-11-05T00:52:59.540Z,101716.53
2022-11-05T00:55:40.931Z,101715.50
2022-11-05T00:58:15.373Z,101722.31
2022-11-05T01:00:47.101Z,101724.94
2022-11-05T01:03:19.101Z,101728.34
2022-11-05T01:05:50.391Z,101729.06
2022-11-05T01:08:23.383Z,101726.56
2022-11-05T01:10:54.822Z,101730.84
2022-11-05T01:13:30.135Z,101728.25
2022-11-05T01:16:00.486Z,101729.38
2022-11-05T01:18:30.641Z,101734.28
2022-11-05T01:21:00.220Z,101728.03
2022-11-05T01:23:31.427Z,101726.91
2022-11-05T01:26:01.594Z,101724.31
2022-11-05T01:28:33.951Z,101715.44
2022-11-05T01:31:03.568Z,101721.31
2022-11-05T01:33:33.434Z,101720.34
2022-11-05T01:36:03.120Z,101716.03
2022-11-05T01:38:32.732Z,101719.38
2022-11-05T01:41:02.236Z,101721.72
2022-11-05T01:43:49.631Z,101724.31
2022-11-05T01:46:21.365Z,101725.06
2022-11-05T01:49:00.057Z,101724.97
2022-11-05T01:51:32.523Z,101722.22
2022-11-05T01:54:04.971Z,101720.34
2022-11-05T01:56:40.143Z,101724.50
2022-11-05T01:59:17.009Z,101721.00
2022-11-05T02:01:46.721Z,101730.66
2022-11-05T02:04:20.122Z,101733.16
2022-11-05T02:06:49.930Z,101733.75
2022-11-05T02:09:24.249Z,101726.69
2022-11-05T02:11:54.689Z,101737.72
2022-11-05T02:14:27.019Z,101736.63
2022-11-05T02:17:02.486Z,101736.97
2022-11-05T02:20:03.862Z,101718.53
2022-11-05T02:22:56.176Z,101723.94
2022-11-05T02:25:55.165Z,101727.63
2022-11-05T02:28:52.539Z,101724.69
2022-11-05T02:31:37.691Z,101726.53
2022-11-05T02:34:19.965Z,101725.53
2022-11-05T02:36:53.396Z,101723.66
2022-11-05T02:39:40.417Z,101711.19
2022-11-05T02:42:18.617Z,101723.09
2022-11-05T02:44:56.021Z,101724.75
2022-11-05T02:47:40.403Z,101715.59
2022-11-05T02:53:34.692Z,101715.59
2022-11-05T02:56:23.121Z,101713.75
2022-11-05T02:59:12.964Z,101721.19
2022-11-05T03:01:52.709Z,101714.34
2022-11-05T03:05:01.291Z,101718.84
2022-11-05T03:07:58.664Z,101719.97
2022-11-05T03:10:48.753Z,101722.16
2022-11-05T03:13:29.638Z,101724.09
2022-11-05T03:16:26.068Z,101738.09
2022-11-05T03:19:13.999Z,101738.44
2022-11-05T03:22:05.946Z,101731.59
2022-11-05T03:25:00.148Z,101724.03
2022-11-05T03:27:37.536Z,101731.88
2022-11-05T03:30:19.155Z,101730.97
2022-11-05T03:33:04.400Z,101727.59
2022-11-05T03:35:49.040Z,101719.66
2022-11-05T03:49:57.828Z,101723.72
2022-11-05T03:53:17.352Z,101716.69
2022-11-05T03:56:34.151Z,101722.56
2022-11-05T04:06:36.481Z,101730.25
2022-11-05T04:09:40.415Z,101729.06
2022-11-05T04:18:59.763Z,101731.63
2022-11-05T04:24:44.798Z,101731.03
2022-11-05T04:27:20.944Z,101735.94
2022-11-05T04:30:10.646Z,101728.81
2022-11-05T04:33:13.297Z,101742.50
2022-11-05T04:35:57.672Z,101748.22
2022-11-05T04:38:46.259Z,101756.56
2022-11-05T04:41:32.762Z,101752.19
2022-11-05T04:44:32.534Z,101753.06
2022-11-05T04:47:15.581Z,101753.97
2022-11-05T04:50:35.467Z,101754.22
2022-11-05T04:53:45.723Z,101756.75
2022-11-05T04:57:00.377Z,101752.28
2022-11-05T04:59:42.693Z,101759.06
2022-11-05T05:03:05.774Z,101754.31
2022-11-05T05:05:28.607Z,101757.28
2022-11-05T05:11:28.321Z,101751.91
2022-11-05T05:13:57.804Z,101753.94
2022-11-05T05:16:28.788Z,101742.75
2022-11-05T05:18:58.461Z,101753.94
2022-11-05T05:21:41.302Z,101754.97
2022-11-05T05:24:15.616Z,101760.75
2022-11-05T05:26:49.448Z,101755.25
2022-11-05T05:29:20.121Z,101755.09
2022-11-05T05:31:49.697Z,101755.84
2022-11-05T05:34:19.273Z,101751.75
2022-11-05T05:36:48.833Z,101747.50
2022-11-05T05:39:18.608Z,101751.69
2022-11-05T05:41:50.713Z,101757.78
2022-11-05T05:44:20.280Z,101758.66
2022-11-05T05:46:49.882Z,101764.56
2022-11-05T05:49:19.386Z,101760.03
2022-11-05T05:51:51.095Z,101762.56
2022-11-05T05:54:20.661Z,101764.63
2022-11-05T05:56:52.885Z,101764.75
2022-11-05T05:59:22.700Z,101760.66
2022-11-05T06:01:52.518Z,101768.56
2022-11-05T06:04:22.479Z,101780.25
2022-11-05T06:06:52.123Z,101771.47
2022-11-05T06:09:21.679Z,101772.97
2022-11-05T06:11:53.844Z,101775.19
2022-11-05T06:14:23.433Z,101774.91
2022-11-05T06:16:52.911Z,101777.56
2022-11-05T06:19:22.443Z,101778.63
2022-11-05T06:21:51.966Z,101781.75
2022-11-05T06:24:21.548Z,101789.22
2022-11-05T06:26:53.748Z,101786.34
2022-11-05T06:29:23.389Z,101782.78
2022-11-05T06:31:52.872Z,101785.44
2022-11-05T06:34:22.423Z,101792.66
2022-11-05T06:36:52.019Z,101789.31
2022-11-05T06:39:21.671Z,101787.66
2022-11-05T06:44:43.869Z,101789.31
2022-11-05T06:47:14.656Z,101791.97
2022-11-05T06:49:44.803Z,101790.13
2022-11-05T06:52:15.356Z,101789.69
2022-11-05T06:54:45.763Z,101793.69
2022-11-05T06:57:18.188Z,101791.97
2022-11-05T06:59:47.743Z,101797.19
2022-11-05T07:02:18.373Z,101800.78
2022-11-05T07:04:47.985Z,101804.94
2022-11-05T07:07:17.511Z,101801.44
2022-11-05T07:09:47.020Z,101802.41
2022-11-05T07:12:19.245Z,101804.03
2022-11-05T07:14:48.790Z,101810.22
2022-11-05T07:17:20.274Z,101809.25
2022-11-05T07:19:49.850Z,101805.66
2022-11-05T07:22:19.545Z,101809.25
2022-11-05T07:24:50.093Z,101802.41
2022-11-05T07:27:22.260Z,101802.41
2022-11-05T07:29:51.880Z,101807.94
2022-11-05T07:32:21.424Z,101807.47
2022-11-05T07:34:50.987Z,101805.22
2022-11-05T07:37:20.680Z,101805.91
2022-11-05T07:39:50.252Z,101809.88
2022-11-05T07:42:22.410Z,101811.94
2022-11-05T07:44:52.096Z,101814.00
2022-11-05T07:47:21.638Z,101812.78
2022-11-05T07:49:51.162Z,101812.22
2022-11-05T07:52:20.802Z,101815.19
2022-11-05T07:54:50.353Z,101815.50
2022-11-05T07:57:22.469Z,101814.88
2022-11-05T07:59:52.046Z,101804.59
2022-11-05T08:02:21.886Z,101803.84
2022-11-05T08:04:51.565Z,101807.41
2022-11-05T08:07:21.085Z,101802.50
2022-11-05T08:09:50.692Z,101801.06
2022-11-05T08:12:22.878Z,101803.16
2022-11-05T08:14:52.494Z,101805.13
2022-11-05T08:17:22.446Z,101809.81
2022-11-05T08:19:51.955Z,101814.41
2022-11-05T08:22:21.546Z,101808.41
2022-11-05T08:24:51.139Z,101810.31
2022-11-05T08:27:23.346Z,101809.69
2022-11-05T08:29:53.144Z,101804.59
2022-11-05T08:35:48.824Z,101808.41
2022-11-05T08:38:20.528Z,101798.84
2022-11-05T08:40:58.740Z,101803.44
2022-11-05T08:46:13.491Z,101810.03
2022-11-05T08:48:43.090Z,101818.06
2022-11-05T08:51:12.781Z,101815.69
2022-11-05T08:53:42.486Z,101823.75
2022-11-05T08:56:12.101Z,101818.13
2022-11-05T08:58:41.687Z,101813.44
2022-11-05T09:01:14.009Z,101806.78
2022-11-05T09:03:43.667Z,101813.28
2022-11-05T09:06:13.304Z,101805.78
2022-11-05T09:08:42.896Z,101815.69
2022-11-05T09:11:12.477Z,101814.31
2022-11-05T09:13:42.252Z,101819.75
2022-11-05T09:16:21.971Z,101818.31
2022-11-05T09:18:51.997Z,101824.66
2022-11-05T09:21:22.012Z,101818.81
2022-11-05T09:23:51.627Z,101826.09
2022-11-05T09:26:21.200Z,101822.94
2022-11-05T09:28:50.942Z,101822.22
2022-11-05T09:31:23.112Z,101826.00
2022-11-05T09:33:52.625Z,101835.72
2022-11-05T09:36:22.204Z,101828.84
2022-11-05T09:38:51.850Z,101836.75
2022-11-05T09:41:29.727Z,101826.38
2022-11-05T09:44:01.995Z,101830.75
2022-11-05T09:46:42.582Z,101829.19
2022-11-05T09:49:26.213Z,101834.44
2022-11-05T09:51:58.299Z,101824.94
2022-11-05T09:54:31.612Z,101826.94
2022-11-05T09:57:03.009Z,101824.25
2022-11-05T09:59:36.989Z,101813.88
2022-11-05T10:02:19.967Z,101822.78
2022-11-05T10:04:52.828Z,101822.88
2022-11-05T10:07:25.596Z,101818.88
2022-11-05T10:10:00.493Z,101821.56
2022-11-05T10:12:35.197Z,101820.63
2022-11-05T10:15:13.300Z,101819.81
2022-11-05T10:17:51.554Z,101810.91
2022-11-05T10:20:30.483Z,101811.81
2022-11-05T10:23:04.081Z,101818.81
2022-11-05T10:25:38.284Z,101818.22
2022-11-05T10:28:09.656Z,101825.25
2022-11-05T10:30:39.951Z,101816.75
2022-11-05T10:33:16.179Z,101826.22
2022-11-05T10:35:57.466Z,101826.44
2022-11-05T10:38:27.435Z,101817.81
2022-11-05T10:41:06.350Z,101819.53
2022-11-05T10:43:43.277Z,101822.41
2022-11-05T10:46:32.468Z,101821.13
2022-11-05T10:49:18.907Z,101828.28
2022-11-05T10:51:54.667Z,101820.81
2022-11-05T10:54:27.445Z,101818.31
2022-11-05T10:56:56.965Z,101808.88
2022-11-05T10:59:28.722Z,101809.59
2022-11-05T11:02:00.242Z,101825.84
2022-11-05T11:04:37.894Z,101830.94
2022-11-05T11:07:08.201Z,101829.25
2022-11-05T11:09:39.684Z,101823.00
2022-11-05T11:12:18.298Z,101829.16
2022-11-05T11:15:03.683Z,101831.03
2022-11-05T11:17:35.240Z,101829.44
2022-11-05T11:20:27.116Z,101830.38
2022-11-05T11:23:08.512Z,101819.19
2022-11-05T11:25:47.671Z,101823.59
2022-11-05T11:28:22.752Z,101817.47
2022-11-05T11:30:58.052Z,101815.81
2022-11-05T11:33:31.154Z,101819.28
2022-11-05T11:36:03.875Z,101817.69
2022-11-05T11:38:39.040Z,101821.94
2022-11-05T11:41:20.600Z,101818.75
2022-11-05T11:43:50.476Z,101823.19
2022-11-05T11:46:23.663Z,101823.59
2022-11-05T11:48:55.702Z,101814.53
2022-11-05T11:51:40.745Z,101818.88
2022-11-05T11:54:25.958Z,101830.38
2022-11-05T11:56:58.601Z,101817.16
2022-11-05T12:00:02.061Z,101826.81
2022-11-05T12:02:41.036Z,101822.25
2022-11-05T12:05:26.280Z,101809.28
2022-11-05T12:08:03.446Z,101812.09
2022-11-05T12:10:47.286Z,101805.91
2022-11-05T12:13:49.825Z,101809.53
2022-11-05T12:16:30.236Z,101801.72
2022-11-05T12:19:08.926Z,101799.16
2022-11-05T12:21:53.131Z,101801.06
2022-11-05T12:24:54.677Z,101798.34
2022-11-05T12:27:36.356Z,101780.06
2022-11-05T12:30:11.355Z,101786.06
2022-11-05T12:33:01.927Z,101779.72
2022-11-05T12:35:53.355Z,101780.69
2022-11-05T12:38:40.560Z,101785.19
2022-11-05T12:41:19.637Z,101779.00
2022-11-05T12:44:04.773Z,101778.03
2022-11-05T12:46:41.223Z,101775.22
2022-11-05T12:49:49.120Z,101774.38
2022-11-05T12:52:45.688Z,101771.78
2022-11-05T12:55:20.492Z,101768.22
2022-11-05T12:57:56.693Z,101757.78
2022-11-05T13:00:27.925Z,101756.97
2022-11-05T13:03:18.110Z,101756.19
2022-11-05T13:05:51.352Z,101755.09
2022-11-05T13:08:26.426Z,101753.13
2022-11-05T13:11:00.177Z,101749.44
2022-11-05T13:13:34.005Z,101741.53
2022-11-05T13:16:12.977Z,101734.44
2022-11-05T13:18:48.066Z,101736.09
2022-11-05T13:21:18.627Z,101729.81
2022-11-05T13:23:52.949Z,101733.41
2022-11-05T13:26:27.451Z,101729.91
2022-11-05T13:29:07.290Z,101730.03
2022-11-05T13:31:41.472Z,101731.75
2022-11-05T13:34:15.094Z,101728.22
2022-11-05T13:37:08.358Z,101735.25
2022-11-05T13:39:44.281Z,101731.69
2022-11-05T13:42:38.674Z,101721.75
2022-11-05T13:45:33.899Z,101725.47
2022-11-05T13:48:20.736Z,101726.78
2022-11-05T13:51:07.729Z,101730.41
2022-11-05T13:53:51.741Z,101732.25
2022-11-05T13:56:33.746Z,101732.97
2022-11-05T13:59:23.211Z,101733.81
2022-11-05T14:01:59.698Z,101735.41
2022-11-05T14:04:34.308Z,101740.06
2022-11-05T14:07:14.108Z,101727.78
2022-11-05T14:09:44.532Z,101731.00
2022-11-05T14:12:23.480Z,101734.31
2022-11-05T14:14:59.096Z,101732.78
2022-11-05T14:17:36.612Z,101736.19
2022-11-05T14:20:25.834Z,101735.47
2022-11-05T14:22:55.667Z,101735.31
2022-11-05T14:25:55.486Z,101731.78
2022-11-05T14:28:48.953Z,101731.59
2022-11-05T14:32:07.038Z,101739.56
2022-11-05T14:34:57.116Z,101734.28
2022-11-05T14:37:37.195Z,101723.69
2022-11-05T14:40:36.360Z,101723.75
2022-11-05T14:43:10.599Z,101725.47
2022-11-05T14:45:43.852Z,101716.66
2022-11-05T14:48:29.830Z,101714.81
2022-11-05T14:51:02.810Z,101727.09
2022-11-05T14:53:38.009Z,101713.13
2022-11-05T14:56:10.753Z,101723.75
2022-11-05T14:58:42.216Z,101728.00
2022-11-05T15:01:33.355Z,101720.19
2022-11-05T15:04:20.079Z,101718.97
2022-11-05T15:07:36.477Z,101711.03
2022-11-05T15:10:11.899Z,101716.50
2022-11-05T15:12:50.268Z,101710.13
2022-11-05T15:15:25.002Z,101712.00
2022-11-05T15:18:03.763Z,101714.31
2022-11-05T15:20:41.159Z,101717.84
2022-11-05T15:23:17.480Z,101703.81
2022-11-05T15:25:53.826Z,101710.72
2022-11-05T15:28:31.575Z,101715.09
2022-11-05T15:31:03.562Z,101707.03
2022-11-05T15:33:34.702Z,101715.97
2022-11-05T15:36:23.433Z,101710.50
2022-11-05T15:39:27.511Z,101706.97
2022-11-05T15:41:46.097Z,101705.09
2022-11-05T15:44:31.144Z,101709.34
2022-11-05T15:47:21.133Z,101703.09
2022-11-05T15:49:53.585Z,101707.38
2022-11-05T15:52:26.234Z,101705.78
2022-11-05T15:55:26.420Z,101694.25
2022-11-05T15:58:02.478Z,101702.06
2022-11-05T16:00:34.814Z,101693.13
2022-11-05T16:03:08.033Z,101687.88
2022-11-05T16:05:45.636Z,101688.63
2022-11-05T16:08:20.031Z,101686.91
2022-11-05T16:10:54.097Z,101682.41
2022-11-05T16:13:26.958Z,101683.22
2022-11-05T16:15:58.321Z,101675.25
2022-11-05T16:18:34.075Z,101684.72
2022-11-05T16:21:08.512Z,101683.88
2022-11-05T16:23:48.017Z,101682.94
2022-11-05T16:29:31.802Z,101673.25
2022-11-05T16:32:02.988Z,101674.97
2022-11-05T16:34:37.707Z,101671.47
2022-11-05T16:37:08.728Z,101665.31
2022-11-05T16:39:38.429Z,101665.34
2022-11-05T16:42:38.884Z,101655.66
2022-11-05T16:45:10.371Z,101654.00
2022-11-05T16:47:40.011Z,101660.13
2022-11-05T16:50:18.388Z,101644.44
2022-11-05T16:52:49.164Z,101646.19
2022-11-05T16:55:19.617Z,101652.25
2022-11-05T16:57:54.930Z,101641.03
2022-11-05T17:00:25.878Z,101640.16
2022-11-05T17:02:56.614Z,101642.94
2022-11-05T17:05:29.921Z,101648.03
2022-11-05T17:08:01.247Z,101646.28
2022-11-05T17:10:30.845Z,101645.47
2022-11-05T17:13:03.029Z,101653.19
2022-11-05T17:15:35.692Z,101667.09
2022-11-05T17:18:07.069Z,101674.97
2022-11-05T17:20:41.015Z,101678.59
2022-11-05T17:23:12.162Z,101679.56
2022-11-05T17:25:43.463Z,101692.53
2022-11-05T17:28:16.853Z,101681.25
2022-11-05T17:30:52.308Z,101689.06
2022-11-05T17:33:24.316Z,101693.41
2022-11-05T17:35:55.526Z,101692.47
2022-11-05T17:38:26.760Z,101681.16
2022-11-05T17:40:56.981Z,101696.91
2022-11-05T17:43:29.390Z,101701.31
2022-11-05T17:46:04.324Z,101693.38
2022-11-05T17:48:34.421Z,101689.94
2022-11-05T17:51:04.327Z,101689.09
2022-11-05T17:53:33.998Z,101695.19
2022-11-05T17:56:03.541Z,101698.66
2022-11-05T17:58:37.114Z,101701.47
2022-11-05T18:01:07.179Z,101702.31
2022-11-05T18:03:37.426Z,101702.22
2022-11-05T18:06:10.549Z,101703.97
2022-11-05T18:08:40.304Z,101686.50
2022-11-05T18:11:10.003Z,101689.09
2022-11-05T18:13:42.489Z,101678.69
2022-11-05T18:16:12.706Z,101675.06
2022-11-05T18:18:42.581Z,101671.63
2022-11-05T18:21:12.360Z,101669.00
2022-11-05T18:23:42.209Z,101673.44
2022-11-05T18:26:13.189Z,101659.47
2022-11-05T18:28:46.850Z,101663.94
2022-11-05T18:31:18.629Z,101656.88
2022-11-05T18:33:48.839Z,101665.53
2022-11-05T18:36:23.054Z,101655.09
2022-11-05T18:38:53.074Z,101651.59
2022-11-05T18:41:23.869Z,101648.13
2022-11-05T18:43:56.458Z,101626.28
2022-11-05T18:46:56.015Z,101616.75
2022-11-05T18:49:15.971Z,101601.84
2022-11-05T18:51:46.445Z,101602.78
2022-11-05T18:54:16.170Z,101602.84
2022-11-05T18:56:47.648Z,101580.97
2022-11-05T18:59:36.314Z,101606.16
2022-11-05T19:02:06.966Z,101607.03
2022-11-05T19:04:38.520Z,101615.72
2022-11-05T19:07:09.542Z,101611.53
2022-11-05T19:09:40.813Z,101612.28
2022-11-05T19:12:13.835Z,101607.00
2022-11-05T19:14:46.816Z,101609.44
2022-11-05T19:17:16.536Z,101612.00
2022-11-05T19:19:46.367Z,101614.84
2022-11-05T19:22:16.283Z,101616.53
2022-11-05T19:24:45.977Z,101605.13
2022-11-05T19:27:15.908Z,101612.94
2022-11-05T19:29:49.398Z,101601.53
2022-11-05T19:32:19.912Z,101596.28
2022-11-05T19:34:49.641Z,101584.06
2022-11-05T19:37:20.162Z,101585.72
2022-11-05T19:39:49.937Z,101584.91
2022-11-05T19:42:19.486Z,101582.25
2022-11-05T19:44:51.655Z,101584.00
2022-11-05T19:47:21.960Z,101567.34
2022-11-05T19:49:51.652Z,101582.25
2022-11-05T19:52:21.290Z,101579.56
2022-11-05T19:54:51.204Z,101579.59
2022-11-05T19:57:21.026Z,101581.38
2022-11-05T19:59:53.289Z,101576.22
2022-11-05T20:02:23.093Z,101579.69
2022-11-05T20:04:53.280Z,101576.03
2022-11-05T20:07:23.330Z,101584.56
2022-11-05T20:09:53.013Z,101574.03
2022-11-05T20:12:22.712Z,101568.69
2022-11-05T20:14:55.041Z,101566.94
2022-11-05T20:17:24.719Z,101570.69
2022-11-05T20:19:54.980Z,101571.50
2022-11-05T20:22:25.821Z,101567.97
2022-11-05T20:24:55.638Z,101566.16
2022-11-05T20:27:25.251Z,101573.25
2022-11-05T20:29:57.616Z,101574.09
2022-11-05T20:32:27.620Z,101574.13
2022-11-05T20:34:57.425Z,101577.63
2022-11-05T20:37:27.041Z,101573.38
2022-11-05T20:39:56.661Z,101574.34
2022-11-05T20:42:26.254Z,101578.72
2022-11-05T20:45:00.739Z,101582.16
2022-11-05T20:47:31.066Z,101573.50
2022-11-05T20:50:04.385Z,101579.50
2022-11-05T20:52:37.388Z,101582.41
2022-11-05T20:55:09.242Z,101580.53
2022-11-05T20:57:39.418Z,101582.34
2022-11-05T21:00:13.238Z,101572.75
2022-11-05T21:02:42.695Z,101575.34
2022-11-05T21:05:12.471Z,101570.81
2022-11-05T21:07:42.316Z,101556.97
2022-11-05T21:10:12.424Z,101560.44
2022-11-05T21:12:42.969Z,101568.19
2022-11-05T21:15:15.607Z,101573.59
2022-11-05T21:17:45.747Z,101573.50
2022-11-05T21:20:15.688Z,101568.31
2022-11-05T21:22:45.882Z,101564.78
2022-11-05T21:25:17.055Z,101568.94
2022-11-05T21:27:47.582Z,101561.44
2022-11-05T21:30:20.473Z,101556.78
2022-11-05T21:32:50.159Z,101567.34
2022-11-05T21:35:20.272Z,101557.59
2022-11-05T21:37:50.521Z,101552.44
2022-11-05T21:40:21.183Z,101552.38
2022-11-05T21:42:50.862Z,101552.47
2022-11-05T21:45:23.175Z,101568.22
2022-11-05T21:47:52.974Z,101574.44
2022-11-05T21:50:42.975Z,101556.06
2022-11-05T21:53:28.227Z,101568.28
2022-11-05T21:56:10.223Z,101548.22
2022-11-05T21:58:52.526Z,101563.88
2022-11-05T22:01:24.869Z,101561.22
2022-11-05T22:03:58.919Z,101553.41
2022-11-05T22:06:35.088Z,101556.03
2022-11-05T22:09:04.986Z,101545.66
2022-11-05T22:11:38.181Z,101556.03
2022-11-05T22:14:08.004Z,101553.31
2022-11-05T22:16:40.371Z,101549.84
2022-11-05T22:19:10.094Z,101541.88
2022-11-05T22:21:39.684Z,101528.69
2022-11-05T22:24:13.313Z,101539.97
2022-11-05T22:26:44.525Z,101536.63
2022-11-05T22:29:15.473Z,101531.31
2022-11-05T22:31:47.763Z,101532.25
2022-11-05T22:34:18.335Z,101526.16
2022-11-05T22:36:49.293Z,101523.75
2022-11-05T22:39:19.024Z,101524.59
2022-11-05T22:41:49.304Z,101515.69
2022-11-05T22:44:19.403Z,101531.53
2022-11-05T22:46:51.853Z,101531.44
2022-11-05T22:49:21.785Z,101514.09
2022-11-05T22:51:51.476Z,101507.94
2022-11-05T22:54:21.266Z,101512.22
2022-11-05T22:56:52.713Z,101510.59
2022-11-05T22:59:23.165Z,101505.34
2022-11-05T23:01:55.604Z,101502.59
2022-11-05T23:04:25.323Z,101492.13
2022-11-05T23:07:07.314Z,101501.75
2022-11-05T23:09:50.349Z,101499.09
2022-11-05T23:12:27.229Z,101496.44
2022-11-05T23:14:58.916Z,101490.31
2022-11-05T23:17:44.774Z,101497.31
2022-11-05T23:20:30.786Z,101485.34
2022-11-05T23:23:13.405Z,101494.97
2022-11-05T23:25:43.335Z,101485.34
2022-11-05T23:28:14.840Z,101484.44
2022-11-05T23:30:59.133Z,101483.66
2022-11-05T23:33:32.166Z,101486.22
2022-11-05T23:36:14.450Z,101464.38
2022-11-05T23:38:44.762Z,101468.88
2022-11-05T23:41:26.847Z,101477.66
2022-11-05T23:44:08.925Z,101472.41
2022-11-05T23:46:51.063Z,101492.50
2022-11-05T23:49:23.749Z,101483.72
2022-11-05T23:51:53.365Z,101468.03
2022-11-05T23:54:23.054Z,101476.97
2022-11-05T23:56:52.640Z,101476.09
2022-11-05T23:59:22.232Z,101478.66
